Time;durP1;ratioP1;P1;durP2;ratioP2;P2;SDS_P1;SDS_P2;PMS_P1;PMS_P2;Temp;Humidity;BMP_temperature;BMP_pressure;BME280_temperature;BME280_humidity;BME280_pressure;Samples;Min_cycle;Max_cycle;Signal;HPM_P1;HPM_P2
2020/12/09 00:01:50;;;;;;;11.85;7.60;;;;;;;4.24;75.96;99259.28;4178329;34;32825;-95
2020/12/09 00:04:38;;;;;;;10.50;7.82;;;;;;;4.32;75.69;99261.16;4190621;34;32398;-96
2020/12/09 00:07:10;;;;;;;12.18;8.20;;;;;;;4.23;75.99;99262.13;4192648;34;34283;-91
2020/12/09 00:09:55;;;;;;;11.90;7.22;;;;;;;4.38;75.35;99262.37;4200302;34;33072;-93
2020/12/09 00:12:30;;;;;;;12.23;8.00;;;;;;;4.23;75.99;99259.44;4185991;34;33556;-95
2020/12/09 00:15:17;;;;;;;11.50;7.70;;;;;;;4.07;76.22;99261.03;4200496;34;32812;-95
2020/12/09 00:17:49;;;;;;;11.05;8.32;;;;;;;4.17;76.37;99252.06;4191213;34;34498;-95
2020/12/09 00:20:22;;;;;;;10.98;8.35;;;;;;;4.04;76.41;99245.31;4190984;34;33783;-94
2020/12/09 00:22:54;;;;;;;12.05;8.13;;;;;;;4.06;76.67;99248.66;4187611;34;32453;-96
2020/12/09 00:25:40;;;;;;;13.85;8.00;;;;;;;4.01;76.96;99245.63;4206393;34;36193;-95
2020/12/09 00:28:12;;;;;;;13.82;8.95;;;;;;;3.92;77.30;99235.03;4191445;34;33372;-96
2020/12/09 00:30:58;;;;;;;13.38;7.78;;;;;;;4.37;75.52;99244.63;4199591;34;20115;-93
2020/12/09 00:33:30;;;;;;;12.32;8.38;;;;;;;3.96;77.04;99247.91;4197940;34;33734;-95
2020/12/09 00:36:06;;;;;;;11.23;8.30;;;;;;;3.84;77.59;99254.53;4206501;34;32871;-94
2020/12/09 00:38:44;;;;;;;14.82;8.90;;;;;;;3.88;77.59;99254.06;4196445;34;34113;-96
2020/12/09 00:41:27;;;;;;;12.25;8.75;;;;;;;3.93;76.88;99247.41;4197210;34;34282;-94
2020/12/09 00:44:00;;;;;;;13.73;8.65;;;;;;;4.01;77.16;99267.03;4196625;34;32595;-94
2020/12/09 00:46:44;;;;;;;16.73;9.43;;;;;;;3.95;77.26;99275.69;4206445;34;32775;-96
2020/12/09 00:49:38;;;;;;;10.73;8.20;;;;;;;4.19;76.49;99275.00;4214233;33;32765;-96
2020/12/09 00:52:24;;;;;;;11.45;7.90;;;;;;;4.31;75.91;99277.37;4195198;34;34563;-95
2020/12/09 00:55:10;;;;;;;11.98;8.20;;;;;;;4.28;76.17;99283.91;4204674;34;32241;-93
2020/12/09 00:57:54;;;;;;;15.25;10.05;;;;;;;4.10;76.73;99272.41;4197955;34;34298;-95
2020/12/09 01:00:39;;;;;;;13.73;9.07;;;;;;;4.03;76.95;99273.03;4172070;34;34677;-95
2020/12/09 01:03:24;;;;;;;12.65;8.55;;;;;;;4.50;75.00;99268.28;4207104;33;32915;-96
2020/12/09 01:05:56;;;;;;;14.60;8.75;;;;;;;4.68;74.56;99266.34;4193867;34;33691;-96
2020/12/09 01:08:41;;;;;;;13.55;8.90;;;;;;;4.62;74.70;99266.19;4210185;33;32693;-96
2020/12/09 01:11:29;;;;;;;13.25;9.20;;;;;;;4.62;74.66;99274.22;4193761;34;34320;-94
2020/12/09 01:14:15;;;;;;;15.10;9.60;;;;;;;4.66;74.43;99271.03;4216354;34;34537;-96
2020/12/09 01:16:52;;;;;;;14.52;9.70;;;;;;;4.27;75.41;99268.84;4205234;34;33447;-95
2020/12/09 01:19:40;;;;;;;12.43;8.90;;;;;;;3.97;76.38;99257.62;4203322;33;33079;-95
2020/12/09 01:22:21;;;;;;;20.27;9.77;;;;;;;4.28;75.55;99265.19;4190414;34;34200;-96
2020/12/09 01:25:09;;;;;;;12.30;9.38;;;;;;;3.96;76.65;99258.62;4207168;34;33570;-93
2020/12/09 01:27:42;;;;;;;11.88;8.65;;;;;;;4.25;75.77;99262.81;4201302;34;33976;-94
2020/12/09 01:30:27;;;;;;;13.60;9.55;;;;;;;4.55;74.65;99264.16;4192354;34;32937;-95
2020/12/09 01:33:02;;;;;;;12.93;8.55;;;;;;;4.50;74.79;99257.59;4173510;34;34860;-96
2020/12/09 01:35:46;;;;;;;12.95;9.48;;;;;;;4.37;75.21;99258.88;4194326;34;32789;-96
2020/12/09 01:38:34;;;;;;;13.85;9.95;;;;;;;4.09;76.05;99260.03;4217202;33;33354;-95
2020/12/09 01:41:08;;;;;;;13.77;9.68;;;;;;;4.41;75.09;99262.88;4218640;34;32947;-96
2020/12/09 01:43:47;;;;;;;14.00;9.85;;;;;;;4.29;75.68;99263.34;4183233;34;33639;-94
2020/12/09 01:46:42;;;;;;;13.07;9.73;;;;;;;4.28;75.63;99265.19;4177256;34;32608;-96
2020/12/09 01:49:15;;;;;;;11.98;9.50;;;;;;;4.18;75.69;99259.09;4210741;34;32765;-94
2020/12/09 01:52:02;;;;;;;15.95;9.75;;;;;;;4.23;75.84;99260.28;4212111;34;34850;-93
2020/12/09 01:54:45;;;;;;;12.63;9.55;;;;;;;4.02;76.66;99251.81;4216104;33;34597;-96
2020/12/09 01:57:31;;;;;;;15.32;10.30;;;;;;;4.22;75.94;99249.75;4214688;33;35106;-96
2020/12/09 02:00:04;;;;;;;12.82;9.13;;;;;;;4.30;75.65;99255.16;4213659;34;33394;-94
2020/12/09 02:02:40;;;;;;;15.65;10.18;;;;;;;4.19;75.78;99250.06;4199469;34;34313;-95
2020/12/09 02:05:26;;;;;;;15.05;10.00;;;;;;;4.06;76.35;99247.81;4188923;34;32736;-93
2020/12/09 02:07:58;;;;;;;15.38;10.10;;;;;;;3.99;76.71;99242.25;4190968;34;32840;-92
2020/12/09 02:10:32;;;;;;;13.80;9.77;;;;;;;4.21;75.83;99240.88;4211903;34;33212;-95
2020/12/09 02:13:13;;;;;;;13.02;9.23;;;;;;;4.36;75.23;99238.47;4199767;34;33328;-95
2020/12/09 02:15:45;;;;;;;15.23;10.30;;;;;;;4.53;74.89;99241.22;4179847;34;34999;-94
2020/12/09 02:18:18;;;;;;;15.05;10.35;;;;;;;4.10;76.10;99229.63;4191814;34;34868;-95
2020/12/09 02:21:03;;;;;;;15.18;10.60;;;;;;;3.69;78.21;99231.00;4192398;34;33611;-92
2020/12/09 02:23:47;;;;;;;13.80;9.77;;;;;;;3.64;78.61;99222.63;4193467;34;32855;-93
2020/12/09 02:26:47;;;;;;;14.32;9.30;;;;;;;4.12;76.81;99230.31;4177369;34;35707;-96
2020/12/09 02:29:19;;;;;;;18.17;10.32;;;;;;;4.50;75.00;99228.16;4165234;34;34024;-95
2020/12/09 02:31:54;;;;;;;16.37;10.25;;;;;;;4.51;74.84;99230.66;4166342;34;34372;-95
2020/12/09 02:34:26;;;;;;;14.68;9.70;;;;;;;4.06;75.97;99221.91;4183988;34;33514;-94
2020/12/09 02:37:22;;;;;;;13.38;9.68;;;;;;;4.05;76.46;99225.56;4151213;34;35216;-93
2020/12/09 02:39:54;;;;;;;14.60;9.32;;;;;;;4.12;76.10;99222.28;4184784;34;34223;-94
2020/12/09 02:42:30;;;;;;;12.65;9.02;;;;;;;4.48;75.21;99235.50;4154143;34;34013;-96
2020/12/09 02:45:05;;;;;;;14.65;9.30;;;;;;;3.99;76.62;99230.72;4156255;34;34547;-93
2020/12/09 02:47:54;;;;;;;12.60;9.48;;;;;;;4.18;76.15;99229.69;4181280;34;34323;-95
2020/12/09 02:50:26;;;;;;;13.27;9.55;;;;;;;4.57;74.46;99223.84;4197486;34;34184;-92
2020/12/09 02:52:59;;;;;;;16.40;10.23;;;;;;;4.33;75.20;99227.25;4168461;34;33936;-92
2020/12/09 02:55:31;;;;;;;13.93;9.80;;;;;;;4.53;74.71;99233.19;4179816;34;34218;-96
2020/12/09 02:58:18;;;;;;;15.30;10.07;;;;;;;4.16;75.77;99229.84;4194055;34;33482;-94
2020/12/09 03:00:51;;;;;;;16.17;10.43;;;;;;;4.31;75.23;99222.06;4192670;34;34216;-95
2020/12/09 03:03:36;;;;;;;14.32;10.23;;;;;;;4.40;74.71;99226.44;4209600;34;32403;-96
2020/12/09 03:06:09;;;;;;;14.23;9.02;;;;;;;4.10;75.94;99229.63;4209007;34;32218;-93
2020/12/09 03:08:58;;;;;;;15.27;10.27;;;;;;;4.19;75.72;99223.31;4200341;34;32820;-95
2020/12/09 03:11:43;;;;;;;13.95;9.27;;;;;;;3.78;77.06;99215.06;4222893;33;34462;-94
2020/12/09 03:14:30;;;;;;;14.35;9.63;;;;;;;3.95;76.67;99213.31;4203138;33;34812;-95
2020/12/09 03:17:03;;;;;;;16.25;10.45;;;;;;;4.20;75.63;99219.66;4212280;33;32724;-95
2020/12/09 03:19:36;;;;;;;18.00;10.68;;;;;;;3.99;76.50;99215.50;4198862;34;34194;-96
2020/12/09 03:22:11;;;;;;;14.50;9.88;;;;;;;4.10;76.47;99206.38;4208626;34;35427;-96
2020/12/09 03:24:46;;;;;;;16.62;10.98;;;;;;;3.65;77.55;99210.09;4211591;34;33462;-96
2020/12/09 03:27:18;;;;;;;15.45;11.18;;;;;;;3.87;77.23;99201.56;4208849;34;34665;-95
2020/12/09 03:30:04;;;;;;;15.98;10.10;;;;;;;3.83;77.70;99199.38;4206571;34;34644;-96
2020/12/09 03:32:39;;;;;;;15.68;10.13;;;;;;;3.88;77.28;99194.41;4208822;34;35614;-95
2020/12/09 03:35:27;;;;;;;15.80;10.50;;;;;;;4.20;76.01;99190.22;4216288;34;34553;-96
2020/12/09 03:38:00;;;;;;;14.32;11.15;;;;;;;3.74;77.81;99184.28;4184341;34;33896;-93
2020/12/09 03:40:52;;;;;;;17.45;10.80;;;;;;;3.64;77.83;99198.59;4215810;34;32903;-93
2020/12/09 03:43:26;;;;;;;16.98;10.23;;;;;;;4.05;76.71;99193.47;4213065;34;33666;-93
2020/12/09 03:45:59;;;;;;;19.33;12.98;;;;;;;4.46;75.07;99200.03;4221498;34;33914;-96
2020/12/09 03:48:31;;;;;;;15.88;10.93;;;;;;;4.25;75.53;99193.25;4211591;34;34130;-93
2020/12/09 03:51:06;;;;;;;17.80;11.48;;;;;;;4.07;76.32;99185.28;4221751;34;34321;-96
2020/12/09 03:53:38;;;;;;;18.75;11.93;;;;;;;4.37;75.38;99178.59;4222261;34;32809;-93
2020/12/09 03:56:23;;;;;;;24.27;16.52;;;;;;;4.27;75.83;99180.56;4229194;33;32269;-92
2020/12/09 03:58:55;;;;;;;70.15;39.08;;;;;;;4.23;75.55;99179.19;4200441;34;34295;-94
2020/12/09 04:01:28;;;;;;;30.27;19.48;;;;;;;3.61;77.84;99180.19;4218641;34;34241;-91
2020/12/09 04:04:03;;;;;;;21.73;14.82;;;;;;;3.83;77.47;99191.34;4207201;34;34866;-96
2020/12/09 04:06:36;;;;;;;17.35;12.32;;;;;;;3.62;78.04;99173.84;4197290;34;34527;-94
2020/12/09 04:09:10;;;;;;;17.48;11.85;;;;;;;3.67;77.84;99178.72;4229580;33;33864;-94
2020/12/09 04:11:42;;;;;;;19.95;12.27;;;;;;;3.32;79.53;99175.12;4218080;34;34305;-93
2020/12/09 04:14:29;;;;;;;19.55;11.52;;;;;;;3.79;77.98;99187.34;4205831;34;33070;-95
2020/12/09 04:17:01;;;;;;;16.70;10.93;;;;;;;4.07;76.39;99186.16;4197891;34;32554;-93
2020/12/09 04:19:46;;;;;;;16.62;11.32;;;;;;;3.67;78.13;99184.06;4205971;34;34459;-93
2020/12/09 04:22:19;;;;;;;17.50;11.23;;;;;;;3.47;78.72;99184.28;4195532;34;32887;-94
2020/12/09 04:25:14;;;;;;;16.73;11.70;;;;;;;4.01;76.87;99177.91;4209355;34;34962;-96
2020/12/09 04:27:46;;;;;;;15.85;10.85;;;;;;;3.94;76.82;99182.22;4220875;33;32609;-93
2020/12/09 04:30:30;;;;;;;14.87;10.32;;;;;;;3.85;77.49;99189.38;4202606;34;33501;-92
2020/12/09 04:33:02;;;;;;;18.85;11.52;;;;;;;3.73;77.50;99178.09;4208744;34;33889;-94
2020/12/09 04:35:37;;;;;;;18.77;12.32;;;;;;;4.20;75.71;99179.53;4210026;34;33802;-95
2020/12/09 04:38:10;;;;;;;20.52;13.02;;;;;;;3.49;78.48;99176.94;4198474;34;34112;-93
2020/12/09 04:40:44;;;;;;;30.30;19.15;;;;;;;4.00;76.82;99179.75;4196992;34;32870;-92
2020/12/09 04:43:16;;;;;;;18.75;11.85;;;;;;;3.73;77.41;99178.09;4219965;33;34918;-95
2020/12/09 04:46:03;;;;;;;18.62;11.02;;;;;;;3.70;77.69;99176.56;4200564;34;33901;-96
2020/12/09 04:49:01;;;;;;;18.02;10.38;;;;;;;4.11;75.98;99189.34;4189894;34;34037;-96
2020/12/09 04:52:05;;;;;;;19.25;11.82;;;;;;;3.76;76.91;99188.47;4201541;34;34399;-94
2020/12/09 04:54:40;;;;;;;18.65;11.73;;;;;;;3.89;76.86;99185.34;4201846;34;35086;-92
2020/12/09 04:57:37;;;;;;;16.08;10.60;;;;;;;3.64;77.79;99184.38;4178372;34;33920;-96
2020/12/09 05:00:13;;;;;;;17.08;10.63;;;;;;;3.85;76.77;99184.03;4179014;34;32586;-96
2020/12/09 05:03:30;;;;;;;17.70;11.18;;;;;;;3.68;77.83;99180.38;4189581;34;32650;-94
2020/12/09 05:06:03;;;;;;;16.85;10.50;;;;;;;3.95;76.55;99182.09;4156500;34;35068;-96
2020/12/09 05:08:56;;;;;;;17.48;11.05;;;;;;;3.80;77.13;99179.16;4189829;34;33962;-94
2020/12/09 05:11:29;;;;;;;;;;;;;;;3.80;77.00;99176.47;4186807;34;33855;-96
2020/12/09 05:14:06;;;;;;;15.60;9.80;;;;;;;3.83;77.14;99172.63;4177836;34;34198;-93
2020/12/09 05:16:49;;;;;;;19.05;11.80;;;;;;;3.63;77.92;99167.50;4170402;34;33932;-93
2020/12/09 05:19:26;;;;;;;15.68;11.12;;;;;;;3.89;76.59;99164.84;4160593;34;33754;-94
2020/12/09 05:21:59;;;;;;;15.15;10.60;;;;;;;3.95;76.42;99165.19;4166329;34;33847;-92
2020/12/09 05:24:31;;;;;;;21.48;16.30;;;;;;;3.71;77.62;99175.59;4172665;34;34710;-93
2020/12/09 05:27:04;;;;;;;20.08;10.38;;;;;;;3.91;76.69;99172.69;4178970;34;34469;-95
2020/12/09 05:29:59;;;;;;;15.65;10.43;;;;;;;3.58;77.76;99164.47;4184513;34;32961;-92
2020/12/09 05:32:53;;;;;;;15.40;10.80;;;;;;;3.65;77.37;99167.34;4183543;34;34908;-93
2020/12/09 05:36:16;;;;;;;18.87;11.70;;;;;;;4.19;75.46;99164.47;4192028;34;34556;-96
2020/12/09 05:39:22;;;;;;;14.27;9.75;;;;;;;4.00;76.14;99174.41;4216205;28;34058;-96
2020/12/09 05:45:44;;;;;;;15.20;11.00;;;;;;;3.52;78.58;99162.44;4412568;29;31783;-96
2020/12/09 05:48:34;;;;;;;15.98;10.70;;;;;;;3.66;77.38;99161.84;4149441;34;32462;-95
2020/12/09 05:51:09;;;;;;;15.43;10.55;;;;;;;3.62;77.26;99156.97;4161624;34;34004;-96
2020/12/09 05:53:54;;;;;;;15.43;10.18;;;;;;;3.85;76.55;99166.12;4122101;34;35104;-96
2020/12/09 05:56:30;;;;;;;15.35;10.20;;;;;;;3.99;76.28;99164.69;4122917;34;35172;-96
2020/12/09 05:59:03;;;;;;;19.27;11.93;;;;;;;4.00;75.50;99158.38;4122306;34;32934;-94
2020/12/09 06:01:35;;;;;;;24.10;14.15;;;;;;;3.74;76.60;99158.38;4124373;34;35010;-94
2020/12/09 06:04:46;;;;;;;22.15;13.27;;;;;;;3.80;76.48;99167.59;4150796;34;33962;-96
2020/12/09 06:07:32;;;;;;;18.20;11.10;;;;;;;3.58;77.47;99166.28;4127401;34;36493;-97
2020/12/09 06:10:36;;;;;;;20.27;10.40;;;;;;;3.80;76.71;99178.28;4177712;34;32802;-96
2020/12/09 06:13:30;;;;;;;19.10;11.20;;;;;;;4.19;75.19;99184.03;4188836;34;34246;-96
2020/12/09 06:16:26;;;;;;;27.90;14.38;;;;;;;4.18;75.16;99177.00;4215836;28;33678;-96
2020/12/09 06:19:23;;;;;;;23.23;14.45;;;;;;;4.15;75.35;99177.31;4208405;33;33814;-96
2020/12/09 06:22:11;;;;;;;20.55;12.20;;;;;;;4.45;74.08;99168.94;4208835;33;32920;-95
2020/12/09 06:24:44;;;;;;;23.50;12.05;;;;;;;4.23;74.52;99176.53;4218286;33;34359;-95
2020/12/09 06:27:32;;;;;;;16.95;10.52;;;;;;;4.31;74.51;99181.06;4211753;34;32640;-95
2020/12/09 06:30:10;;;;;;;16.70;10.83;;;;;;;4.29;74.71;99186.56;4212735;28;34110;-95
2020/12/09 06:33:52;;;;;;;18.35;9.80;;;;;;;3.88;76.22;99186.37;4184225;34;34704;-96
2020/12/09 06:37:22;;;;;;;17.70;10.63;;;;;;;4.14;75.20;99177.50;4225624;33;20491;-96
2020/12/09 06:40:19;;;;;;;19.90;11.80;;;;;;;4.08;75.56;99181.62;4397766;28;33370;-93
2020/12/09 06:43:11;;;;;;;20.45;12.63;;;;;;;3.92;75.48;99181.53;4461639;28;32605;-96
2020/12/09 06:45:46;;;;;;;21.55;14.13;;;;;;;4.24;75.21;99180.88;4345823;28;34859;-95
2020/12/09 06:48:20;;;;;;;20.42;12.95;;;;;;;4.24;75.34;99183.56;4211714;33;34143;-95
2020/12/09 06:51:36;;;;;;;15.45;10.70;;;;;;;4.60;73.87;99180.69;4219247;34;34790;-93
2020/12/09 06:54:38;;;;;;;17.83;10.43;;;;;;;4.52;73.43;99177.97;4195783;34;33775;-94
2020/12/09 06:57:22;;;;;;;14.07;9.55;;;;;;;4.19;74.50;99183.19;4205682;34;33449;-95
2020/12/09 07:00:18;;;;;;;16.02;9.43;;;;;;;4.20;75.00;99176.84;4201820;34;34900;-96
2020/12/09 07:03:28;;;;;;;18.17;10.57;;;;;;;4.36;74.71;99178.75;4217736;28;33251;-95
2020/12/09 07:06:28;;;;;;;16.02;9.65;;;;;;;3.79;76.88;99166.78;4224602;28;31760;-96
2020/12/09 07:09:38;;;;;;;18.52;10.52;;;;;;;4.32;74.91;99175.56;4244526;28;35330;-95
2020/12/09 07:13:01;;;;;;;15.95;10.13;;;;;;;4.23;74.80;99169.31;4218319;28;34420;-96
2020/12/09 07:16:11;;;;;;;15.13;9.02;;;;;;;4.76;73.60;99175.38;4229740;28;34014;-96
2020/12/09 07:18:53;;;;;;;13.73;9.40;;;;;;;4.67;73.53;99168.34;4183387;28;32149;-96
2020/12/09 07:21:41;;;;;;;12.90;8.77;;;;;;;4.65;73.23;99173.00;4209282;33;32748;-96
2020/12/09 07:24:34;;;;;;;15.90;9.15;;;;;;;4.64;73.78;99171.34;4199673;34;34154;-94
2020/12/09 07:27:12;;;;;;;20.62;8.95;;;;;;;4.83;72.59;99174.72;4193731;34;34007;-95
2020/12/09 07:30:03;;;;;;;18.08;10.05;;;;;;;5.02;72.53;99163.69;4220794;33;33157;-96
2020/12/09 07:32:39;;;;;;;19.27;9.40;;;;;;;5.50;70.95;99171.91;4208338;33;32699;-93
2020/12/09 07:35:29;;;;;;;15.32;9.35;;;;;;;5.64;70.01;99173.06;4197506;34;34130;-96
2020/12/09 07:38:01;;;;;;;13.88;9.00;;;;;;;6.16;68.23;99167.28;4199485;34;34317;-96
2020/12/09 07:40:36;;;;;;;13.38;9.20;;;;;;;6.50;67.22;99182.25;4195421;34;33299;-96
2020/12/09 07:43:10;;;;;;;14.32;8.32;;;;;;;6.31;67.63;99180.00;4192677;34;34476;-96
2020/12/09 07:46:02;;;;;;;15.90;9.05;;;;;;;6.36;67.20;99177.59;4195982;34;33462;-96
2020/12/09 07:48:35;;;;;;;12.55;8.23;;;;;;;6.25;67.42;99180.69;4188576;34;33699;-96
2020/12/09 07:51:29;;;;;;;16.73;8.32;;;;;;;6.21;68.19;99184.72;4190392;34;32983;-94
2020/12/09 07:54:14;;;;;;;13.32;7.85;;;;;;;6.49;67.18;99194.00;4199159;34;32762;-93
2020/12/09 07:57:00;;;;;;;15.48;7.65;;;;;;;6.63;66.76;99191.59;4207469;34;34745;-94
2020/12/09 07:59:46;;;;;;;13.27;8.25;;;;;;;6.25;67.15;99202.16;4188426;34;32913;-93
2020/12/09 08:02:20;;;;;;;12.07;7.93;;;;;;;6.61;66.61;99189.06;4225946;33;33664;-93
2020/12/09 08:05:21;;;;;;;12.57;7.75;;;;;;;6.73;66.73;99194.91;4202357;34;34410;-95
2020/12/09 08:08:03;;;;;;;13.38;7.93;;;;;;;6.80;65.84;99178.94;4182069;34;32592;-94
2020/12/09 08:10:49;;;;;;;11.95;7.87;;;;;;;7.03;65.70;99184.31;4221855;33;34338;-96
2020/12/09 08:13:25;;;;;;;15.25;9.50;;;;;;;6.60;66.58;99183.88;4232598;33;33977;-96
2020/12/09 08:16:12;;;;;;;14.85;8.75;;;;;;;7.28;65.12;99184.16;4201363;34;34178;-96
2020/12/09 08:18:46;;;;;;;13.35;8.80;;;;;;;6.17;67.50;99179.69;4190688;34;33087;-95
2020/12/09 08:21:38;;;;;;;11.43;7.70;;;;;;;6.77;66.18;99184.66;4235075;33;34699;-93
2020/12/09 08:24:22;;;;;;;13.82;7.78;;;;;;;7.27;64.33;99188.69;4221583;33;32800;-95
2020/12/09 08:27:01;;;;;;;18.75;7.78;;;;;;;7.82;63.80;99183.19;4235215;33;33997;-93
2020/12/09 08:29:35;;;;;;;12.02;7.12;;;;;;;7.41;63.88;99187.91;4234809;33;35240;-91
2020/12/09 08:32:12;;;;;;;15.02;6.93;;;;;;;7.19;64.24;99178.81;4232993;33;33915;-96
2020/12/09 08:34:44;;;;;;;10.63;7.53;;;;;;;7.39;63.74;99178.34;4224980;33;32362;-93
2020/12/09 08:37:44;;;;;;;18.00;8.98;;;;;;;7.30;64.36;99174.88;4219197;33;33452;-96
2020/12/09 08:40:37;;;;;;;20.65;10.25;;;;;;;7.71;62.97;99179.06;4180400;34;34081;-96
2020/12/09 08:43:46;;;;;;;21.98;12.45;;;;;;;7.70;63.52;99174.72;4196087;34;34152;-96
2020/12/09 08:46:47;;;;;;;24.92;14.95;;;;;;;7.25;64.22;99178.09;4137773;34;33472;-96
2020/12/09 08:49:34;;;;;;;18.05;10.15;;;;;;;7.60;63.52;99189.28;4140111;34;33760;-96
2020/12/09 08:52:19;;;;;;;16.25;9.82;;;;;;;7.55;63.50;99188.13;4171571;34;33276;-96
2020/12/09 08:55:09;;;;;;;14.00;9.38;;;;;;;7.31;63.78;99176.56;4160413;34;33499;-96
2020/12/09 08:57:43;;;;;;;17.70;9.05;;;;;;;7.30;64.52;99174.88;4162026;34;32356;-95
2020/12/09 09:00:30;;;;;;;14.23;9.15;;;;;;;6.80;65.38;99173.56;4154193;34;32380;-96
2020/12/09 09:03:04;;;;;;;15.43;8.63;;;;;;;7.64;63.81;99167.38;4163864;34;32987;-95
2020/12/09 09:05:53;;;;;;;13.07;8.35;;;;;;;7.67;63.42;99167.84;4199654;34;33764;-94
2020/12/09 09:08:25;;;;;;;15.27;10.30;;;;;;;7.95;62.19;99175.31;4204326;34;33818;-93
2020/12/09 09:11:11;;;;;;;14.23;8.20;;;;;;;7.88;61.95;99172.50;4211737;34;35078;-95
2020/12/09 09:13:43;;;;;;;13.35;7.87;;;;;;;7.98;62.93;99176.78;4203951;34;34035;-93
2020/12/09 09:16:28;;;;;;;15.68;9.05;;;;;;;7.75;62.24;99169.63;4228302;33;34260;-96
2020/12/09 09:19:25;;;;;;;13.05;8.57;;;;;;;8.42;61.77;99173.25;4223129;33;33057;-96
2020/12/09 09:22:01;;;;;;;13.60;8.20;;;;;;;8.30;60.96;99171.03;4219446;33;33939;-96
2020/12/09 09:25:00;;;;;;;13.07;7.57;;;;;;;7.93;62.31;99170.13;4212863;33;33319;-93
2020/12/09 09:27:51;;;;;;;15.32;8.23;;;;;;;7.87;61.75;99167.31;4189695;34;32387;-96
2020/12/09 09:30:43;;;;;;;13.18;7.80;;;;;;;8.34;60.73;99159.88;4227618;33;33997;-93
2020/12/09 09:33:27;;;;;;;11.35;8.20;;;;;;;7.73;62.09;99159.03;4151750;34;32752;-93
2020/12/09 09:36:02;;;;;;;12.52;7.82;;;;;;;8.54;61.16;99154.81;4163896;34;33060;-96
2020/12/09 09:38:59;;;;;;;20.20;11.20;;;;;;;8.72;60.73;99154.37;4178918;34;34593;-96
2020/12/09 09:41:55;;;;;;;15.85;9.82;;;;;;;8.31;61.35;99156.56;4231350;28;33099;-93
2020/12/09 09:45:01;;;;;;;18.15;10.77;;;;;;;8.54;60.58;99155.63;4378335;28;33268;-96
2020/12/09 09:52:39;;;;;;;12.70;8.10;;;;;;;9.16;59.31;99142.59;1027141;28;20302;-90
2020/12/09 09:55:12;;;;;;;17.98;7.85;;;;;;;8.99;59.29;99140.16;4224394;28;30127;-94
2020/12/09 09:58:14;;;;;;;14.87;9.27;;;;;;;8.03;61.21;99155.56;4192789;33;33241;-94
2020/12/09 10:01:08;;;;;;;16.08;9.05;;;;;;;8.60;60.20;99154.03;4190503;34;37000;-92
2020/12/09 10:04:27;;;;;;;12.77;7.15;;;;;;;8.64;60.36;99144.56;4224098;28;20106;-96
2020/12/09 10:07:44;;;;;;;12.98;9.02;;;;;;;8.44;60.98;99133.53;2133461;28;20107;-92
2020/12/09 10:11:03;;;;;;;19.62;12.48;;;;;;;8.39;61.30;99141.31;4195312;34;34671;-92
2020/12/09 10:14:12;;;;;;;15.00;8.25;;;;;;;8.11;60.84;99136.59;4144202;34;33925;-95
2020/12/09 10:16:58;;;;;;;14.70;8.52;;;;;;;8.57;60.69;99133.69;4179239;34;34385;-94
2020/12/09 10:19:39;;;;;;;13.20;7.37;;;;;;;8.80;60.12;99128.16;4227590;33;31929;-95
2020/12/09 10:22:41;;;;;;;15.68;8.23;;;;;;;7.80;61.46;99118.81;4201116;34;34814;-96
2020/12/09 10:25:13;;;;;;;11.20;7.85;;;;;;;8.24;61.04;99128.72;4188423;34;34572;-93
2020/12/09 10:27:53;;;;;;;14.87;8.63;;;;;;;8.37;59.96;99111.03;4263390;28;34959;-96
2020/12/09 10:30:48;;;;;;;15.88;8.90;;;;;;;8.72;60.26;99111.28;4187513;34;33757;-94
2020/12/09 10:33:51;;;;;;;23.25;11.50;;;;;;;7.86;61.42;99101.06;4228708;28;34748;-91
2020/12/09 10:36:36;;;;;;;22.55;11.15;;;;;;;8.44;60.02;99103.91;4176498;34;32844;-94
2020/12/09 10:39:55;;;;;;;25.58;11.63;;;;;;;8.00;60.83;99100.22;4312070;28;35163;-96
2020/12/09 10:42:45;;;;;;;20.33;10.55;;;;;;;8.65;59.86;99101.28;4280766;28;33320;-95
2020/12/09 10:45:34;;;;;;;;;;;;;;;8.67;58.87;99095.69;4195337;34;32951;-93
2020/12/09 10:48:16;;;;;;;11.77;8.75;;;;;;;8.41;60.11;99096.19;4194933;34;34465;-93
2020/12/09 10:50:51;;;;;;;12.57;7.62;;;;;;;8.44;60.24;99085.06;4184908;34;34283;-92
2020/12/09 10:53:23;;;;;;;10.45;6.62;;;;;;;8.68;59.66;99074.97;4183251;34;32175;-93
2020/12/09 10:55:59;;;;;;;11.85;7.07;;;;;;;7.18;62.66;99069.63;4189392;34;33824;-92
2020/12/09 10:58:42;;;;;;;12.07;7.78;;;;;;;7.89;62.16;99076.47;4184523;34;35628;-92
2020/12/09 11:01:18;;;;;;;12.57;7.25;;;;;;;7.54;62.20;99068.12;4166223;34;34659;-92
2020/12/09 11:03:51;;;;;;;12.77;7.15;;;;;;;7.83;61.88;99072.69;4188398;34;34087;-91
2020/12/09 11:06:28;;;;;;;11.95;7.50;;;;;;;8.01;61.23;99053.47;4188984;34;34712;-91
2020/12/09 11:09:20;;;;;;;12.25;7.05;;;;;;;8.32;61.43;99049.69;4184052;34;34605;-91
2020/12/09 11:11:57;;;;;;;10.40;6.60;;;;;;;8.21;60.69;99058.25;4178754;34;34564;-95
2020/12/09 11:14:33;;;;;;;10.40;7.32;;;;;;;7.91;61.21;99059.12;4176791;34;32327;-92
2020/12/09 11:17:27;;;;;;;10.85;6.87;;;;;;;7.48;62.87;99053.56;4200460;33;34433;-96
2020/12/09 11:19:59;;;;;;;15.35;9.15;;;;;;;7.99;61.86;99044.72;4214391;33;35421;-90
2020/12/09 11:22:48;;;;;;;10.25;6.87;;;;;;;8.17;61.60;99038.13;4202117;34;33308;-89
2020/12/09 11:25:25;;;;;;;10.82;5.55;;;;;;;8.00;61.31;99041.03;4204945;34;33977;-91
2020/12/09 11:27:58;;;;;;;10.18;6.55;;;;;;;7.85;62.16;99038.34;4215635;34;33230;-90
2020/12/09 11:30:31;;;;;;;10.57;6.55;;;;;;;7.96;61.41;99039.72;4215911;34;34424;-90
2020/12/09 11:33:05;;;;;;;12.45;7.10;;;;;;;7.71;62.23;99036.50;4191206;34;35210;-92
2020/12/09 11:35:37;;;;;;;10.43;7.18;;;;;;;8.65;60.43;99028.53;4201167;34;32581;-92
2020/12/09 11:38:13;;;;;;;10.90;7.20;;;;;;;8.69;59.88;99018.19;4200872;34;33720;-90
2020/12/09 11:40:48;;;;;;;10.70;6.80;;;;;;;8.37;59.93;99014.97;4190393;34;33964;-88
2020/12/09 11:43:21;;;;;;;11.10;6.85;;;;;;;8.23;60.56;99027.44;4210763;34;33527;-91
2020/12/09 11:45:54;;;;;;;12.45;6.78;;;;;;;8.59;59.35;99023.94;4204797;34;33088;-92
2020/12/09 11:48:27;;;;;;;12.27;7.60;;;;;;;8.84;59.44;99020.81;4203381;34;33510;-90
2020/12/09 11:50:59;;;;;;;18.45;8.13;;;;;;;7.92;61.51;99027.69;4215131;34;35880;-92
2020/12/09 11:53:33;;;;;;;13.32;8.43;;;;;;;8.10;61.43;99024.59;4226123;33;33651;-90
2020/12/09 11:56:06;;;;;;;15.30;7.53;;;;;;;8.00;61.37;99024.06;4214451;34;32698;-90
2020/12/09 11:58:39;;;;;;;12.55;7.90;;;;;;;8.46;60.56;99018.41;4218794;33;33451;-90
2020/12/09 12:01:11;;;;;;;10.40;6.82;;;;;;;8.22;60.63;99023.06;4214930;34;34815;-91
2020/12/09 12:03:44;;;;;;;16.37;9.15;;;;;;;8.47;59.85;99010.13;4193507;34;33977;-92
2020/12/09 12:06:30;;;;;;;11.45;7.40;;;;;;;8.47;59.80;99001.19;4213432;34;33917;-94
2020/12/09 12:09:03;;;;;;;10.23;6.43;;;;;;;8.08;60.78;99005.09;4188039;34;35009;-91
2020/12/09 12:11:35;;;;;;;11.98;6.25;;;;;;;8.32;59.94;98990.44;4201833;34;33938;-91
2020/12/09 12:14:11;;;;;;;13.00;6.57;;;;;;;8.15;60.50;98987.16;4204496;34;34524;-94
2020/12/09 12:16:46;;;;;;;13.13;6.97;;;;;;;8.41;59.64;98989.31;4214719;34;35738;-93
2020/12/09 12:19:19;;;;;;;11.02;6.25;;;;;;;8.55;59.48;98973.28;4215873;34;33506;-91
2020/12/09 12:21:52;;;;;;;10.02;6.93;;;;;;;8.20;60.23;98976.66;4193917;34;34284;-90
2020/12/09 12:27:44;;;;;;;10.85;7.00;;;;;;;8.72;58.65;98973.88;4207438;34;33155;-94
2020/12/09 12:30:23;;;;;;;11.50;7.97;;;;;;;7.69;61.53;98974.00;4226646;33;33294;-91
2020/12/09 12:32:55;;;;;;;9.70;7.10;;;;;;;8.49;60.29;98974.94;4203314;34;33837;-94
2020/12/09 12:35:27;;;;;;;10.43;7.28;;;;;;;8.58;59.80;98978.31;4214365;34;33547;-93
2020/12/09 12:38:02;;;;;;;11.23;7.12;;;;;;;7.82;61.22;98982.22;4215696;34;33187;-89
2020/12/09 12:40:35;;;;;;;11.82;7.95;;;;;;;8.20;60.63;98984.72;4216073;34;33776;-91
2020/12/09 12:43:08;;;;;;;11.30;7.30;;;;;;;8.50;60.60;98983.81;4211930;34;33302;-93
2020/12/09 12:45:44;;;;;;;12.50;7.50;;;;;;;8.22;60.78;98979.16;4204003;34;34612;-90
2020/12/09 12:48:17;;;;;;;12.07;7.85;;;;;;;8.60;59.78;98977.09;4197460;34;33177;-92
2020/12/09 12:51:03;;;;;;;14.38;7.12;;;;;;;8.45;59.84;98979.03;4191227;34;33673;-92
2020/12/09 12:53:36;;;;;;;12.40;7.82;;;;;;;8.27;60.28;98974.88;4222751;33;33450;-92
2020/12/09 12:56:20;;;;;;;37.92;21.17;;;;;;;8.86;58.68;98981.03;4193972;34;34637;-91
2020/12/09 12:58:53;;;;;;;14.02;9.18;;;;;;;8.99;58.37;98981.13;4206887;34;33005;-95